createdAt,value
2019-03-04T00:02:40.326Z,12.20
2019-03-04T00:07:45.505Z,12.20
2019-03-04T00:12:51.026Z,12.30
2019-03-04T00:17:56.214Z,12.30
2019-03-04T00:23:01.420Z,12.30
2019-03-04T00:28:06.678Z,12.40
2019-03-04T00:33:11.609Z,12.30
2019-03-04T00:38:16.817Z,12.30
2019-03-04T00:43:22.001Z,12.30
2019-03-04T00:48:27.202Z,12.20
2019-03-04T00:53:32.105Z,12.20
2019-03-04T00:58:37.585Z,12.30
2019-03-04T01:03:42.590Z,12.30
2019-03-04T01:08:47.517Z,12.20
2019-03-04T01:13:52.948Z,12.20
2019-03-04T01:18:58.177Z,12.20
2019-03-04T01:24:06.681Z,12.20
2019-03-04T01:29:11.589Z,12.20
2019-03-04T01:34:17.098Z,12.20
2019-03-04T01:39:21.944Z,12.10
2019-03-04T01:44:27.101Z,12.20
2019-03-04T01:49:32.538Z,12.10
2019-03-04T01:54:38.037Z,12.10
2019-03-04T01:59:42.851Z,12.10
2019-03-04T02:04:48.402Z,12.10
2019-03-04T02:09:54.004Z,12.00
2019-03-04T02:14:58.893Z,12.10
2019-03-04T02:20:03.875Z,12.10
2019-03-04T02:25:10.785Z,12.20
2019-03-04T02:30:19.458Z,12.20
2019-03-04T02:35:24.451Z,12.30
2019-03-04T02:40:29.805Z,12.40
2019-03-04T02:45:34.755Z,12.50
2019-03-04T02:50:39.985Z,12.60
2019-03-04T02:55:48.178Z,12.50
2019-03-04T03:00:53.449Z,12.50
2019-03-04T03:05:58.525Z,12.50
2019-03-04T03:11:03.538Z,12.50
2019-03-04T03:16:08.480Z,12.40
2019-03-04T03:26:18.370Z,12.30
2019-03-04T03:31:23.597Z,12.40
2019-03-04T03:36:28.840Z,12.40
2019-03-04T03:41:34.060Z,12.40
2019-03-04T03:46:39.432Z,12.40
2019-03-04T03:51:44.422Z,12.50
2019-03-04T03:56:49.343Z,12.50
2019-03-04T04:01:54.508Z,12.40
2019-03-04T04:06:59.477Z,12.40
2019-03-04T04:12:04.386Z,12.40
2019-03-04T04:17:09.305Z,12.40
2019-03-04T04:22:14.271Z,12.40
2019-03-04T04:27:19.291Z,12.40
2019-03-04T04:32:24.466Z,12.40
2019-03-04T04:37:29.627Z,12.40
2019-03-04T04:42:34.831Z,12.40
2019-03-04T04:47:39.750Z,12.40
2019-03-04T04:52:44.994Z,12.30
2019-03-04T04:57:49.889Z,12.30
2019-03-04T05:02:55.053Z,12.30
2019-03-04T05:08:00.240Z,12.30
2019-03-04T05:13:05.532Z,12.30
2019-03-04T05:18:10.704Z,12.30
2019-03-04T05:23:15.525Z,12.30
2019-03-04T05:28:21.005Z,12.30
2019-03-04T05:33:26.185Z,12.30
2019-03-04T05:38:31.189Z,12.30
2019-03-04T05:43:36.750Z,12.30
2019-03-04T05:48:41.913Z,10.10
2019-03-04T05:53:46.810Z,9.80
2019-03-04T05:58:51.923Z,9.40
2019-03-04T06:03:59.677Z,9.50
2019-03-04T06:09:05.790Z,9.30
2019-03-04T06:14:13.434Z,8.90
2019-03-04T06:19:18.570Z,9.40
2019-03-04T06:24:23.712Z,9.50
2019-03-04T06:29:29.071Z,9.60
2019-03-04T06:34:34.224Z,9.60
2019-03-04T06:39:39.245Z,9.60
2019-03-04T06:44:44.649Z,9.60
2019-03-04T06:49:49.850Z,9.70
2019-03-04T06:55:17.181Z,9.70
2019-03-04T07:00:27.401Z,9.70
2019-03-04T07:05:48.929Z,9.60
2019-03-04T07:10:54.078Z,9.80
2019-03-04T07:15:59.048Z,9.70
2019-03-04T07:21:03.954Z,9.70
2019-03-04T07:26:09.043Z,9.70
2019-03-04T07:31:14.007Z,9.70
2019-03-04T07:36:18.885Z,9.90
2019-03-04T07:41:24.331Z,10.00
2019-03-04T07:46:30.321Z,10.00
2019-03-04T07:51:35.318Z,10.00
2019-03-04T07:56:40.530Z,9.90
2019-03-04T08:01:45.511Z,9.80
2019-03-04T08:06:50.657Z,9.90
2019-03-04T08:12:32.199Z,9.80
2019-03-04T08:17:37.372Z,9.80
2019-03-04T08:22:42.494Z,9.80
2019-03-04T08:27:47.508Z,9.80
2019-03-04T08:32:52.558Z,9.90
2019-03-04T08:37:57.701Z,9.90
2019-03-04T08:43:02.649Z,9.90
2019-03-04T08:48:07.581Z,9.90
2019-03-04T08:53:12.730Z,10.00
2019-03-04T08:58:17.750Z,10.20
2019-03-04T09:03:23.470Z,10.20
2019-03-04T09:08:28.549Z,10.30
2019-03-04T09:13:33.780Z,10.60
2019-03-04T09:18:38.652Z,10.60
2019-03-04T09:23:44.087Z,10.50
2019-03-04T09:28:49.304Z,10.50
2019-03-04T09:33:54.560Z,10.40
2019-03-04T09:38:59.437Z,10.60
2019-03-04T09:44:04.473Z,10.70
2019-03-04T09:49:09.766Z,10.80
2019-03-04T09:54:14.769Z,10.90
2019-03-04T09:59:19.812Z,10.80
2019-03-04T10:04:55.707Z,10.70
2019-03-04T10:10:45.057Z,10.70
2019-03-04T10:16:27.322Z,10.70
2019-03-04T10:22:22.702Z,10.70
2019-03-04T10:28:15.116Z,10.60
2019-03-04T10:33:48.359Z,10.70
2019-03-04T10:39:17.796Z,10.80
2019-03-04T10:44:57.872Z,10.80
2019-03-04T10:50:02.797Z,10.70
2019-03-04T10:55:09.135Z,10.90
2019-03-04T11:00:18.584Z,10.90
2019-03-04T11:05:23.766Z,10.90
2019-03-04T11:10:28.717Z,8.80
2019-03-04T11:15:33.941Z,8.80
2019-03-04T11:20:39.650Z,8.60
2019-03-04T11:25:44.718Z,8.70
2019-03-04T11:35:54.220Z,8.60
2019-03-04T11:40:59.924Z,8.50
2019-03-04T11:46:05.168Z,8.80
2019-03-04T11:51:10.429Z,8.80
2019-03-04T11:56:15.721Z,8.70
2019-03-04T12:01:26.836Z,8.70
2019-03-04T12:06:32.122Z,8.50
2019-03-04T12:11:38.415Z,8.60
2019-03-04T12:16:43.773Z,8.40
2019-03-04T12:21:48.900Z,8.50
2019-03-04T12:26:54.169Z,8.40
2019-03-04T12:32:09.198Z,8.80
2019-03-04T12:37:14.389Z,9.00
2019-03-04T12:42:19.321Z,9.40
2019-03-04T12:47:24.306Z,9.50
2019-03-04T12:52:29.236Z,9.40
2019-03-04T12:57:34.193Z,9.20
2019-03-04T13:02:39.370Z,9.60
2019-03-04T13:07:44.416Z,9.40
2019-03-04T13:12:49.606Z,9.40
2019-03-04T13:17:54.501Z,9.40
2019-03-04T13:22:59.656Z,9.50
2019-03-04T13:28:08.487Z,9.40
2019-03-04T13:33:12.329Z,9.50
2019-03-04T13:38:17.495Z,9.50
2019-03-04T13:43:22.646Z,9.30
2019-03-04T13:48:27.635Z,9.50
2019-03-04T13:53:32.890Z,9.50
2019-03-04T13:58:38.317Z,9.40
2019-03-04T14:03:43.486Z,9.50
2019-03-04T14:08:48.664Z,9.40
2019-03-04T14:13:53.536Z,9.40
2019-03-04T14:18:58.844Z,9.40
2019-03-04T14:24:04.093Z,9.50
2019-03-04T14:29:09.069Z,9.50
2019-03-04T14:34:14.021Z,9.60
2019-03-04T14:39:19.221Z,9.50
2019-03-04T14:44:24.955Z,9.50
2019-03-04T14:49:29.989Z,9.60
2019-03-04T14:54:35.177Z,9.60
2019-03-04T14:59:40.649Z,9.70
2019-03-04T15:04:45.617Z,9.70
2019-03-04T15:09:51.180Z,9.80
2019-03-04T15:14:56.581Z,9.70
2019-03-04T15:20:08.730Z,9.70
2019-03-04T15:25:11.025Z,9.70
2019-03-04T15:30:16.365Z,9.70
2019-03-04T15:35:21.396Z,9.70
2019-03-04T15:40:26.876Z,9.60
2019-03-04T15:45:33.610Z,9.70
2019-03-04T15:50:38.605Z,9.60
2019-03-04T15:55:43.758Z,9.60
2019-03-04T16:00:49.042Z,9.60
2019-03-04T16:05:54.264Z,9.60
2019-03-04T16:10:59.930Z,9.50
2019-03-04T16:16:05.209Z,9.40
2019-03-04T16:21:10.441Z,9.40
2019-03-04T16:26:15.710Z,9.30
2019-03-04T16:31:20.696Z,9.20
2019-03-04T16:36:25.821Z,9.10
2019-03-04T16:41:30.748Z,9.00
2019-03-04T16:46:35.926Z,9.20
2019-03-04T16:51:41.162Z,9.10
2019-03-04T16:56:46.261Z,9.10
2019-03-04T17:01:51.534Z,9.00
2019-03-04T17:06:56.949Z,9.00
2019-03-04T17:12:03.589Z,8.90
2019-03-04T17:17:12.687Z,8.70
2019-03-04T17:22:17.836Z,8.80
2019-03-04T17:27:23.125Z,8.80
2019-03-04T17:32:28.507Z,8.60
2019-03-04T17:37:33.688Z,8.60
2019-03-04T17:42:39.027Z,8.70
2019-03-04T17:47:44.324Z,8.70
2019-03-04T17:52:49.496Z,8.60
2019-03-04T17:57:54.535Z,8.60
2019-03-04T18:03:00.100Z,8.50
2019-03-04T18:08:05.165Z,8.60
2019-03-04T18:13:11.327Z,8.50
2019-03-04T18:18:16.293Z,8.40
2019-03-04T18:23:21.585Z,8.40
2019-03-04T18:28:57.326Z,8.30
2019-03-04T18:34:52.824Z,8.40
2019-03-04T18:40:47.452Z,8.40
2019-03-04T18:46:21.150Z,8.30
2019-03-04T18:51:27.204Z,8.40
2019-03-04T18:56:32.457Z,8.30
2019-03-04T19:01:38.146Z,8.30
2019-03-04T19:06:43.633Z,8.20
2019-03-04T19:11:48.635Z,8.20
2019-03-04T19:16:54.341Z,8.20
2019-03-04T19:21:59.248Z,8.20
2019-03-04T19:27:04.939Z,8.20
2019-03-04T19:32:10.292Z,8.20
2019-03-04T19:37:15.187Z,8.20
2019-03-04T19:42:20.689Z,8.20
2019-03-04T19:47:26.280Z,8.20
2019-03-04T19:52:31.162Z,8.20
2019-03-04T19:57:36.588Z,8.20
2019-03-04T20:02:42.175Z,8.30
2019-03-04T20:07:48.041Z,8.30
2019-03-04T20:12:53.449Z,8.20
2019-03-04T20:17:58.621Z,8.10
2019-03-04T20:23:03.882Z,8.00
2019-03-04T20:28:08.803Z,7.70
2019-03-04T20:33:13.792Z,7.40
2019-03-04T20:38:20.791Z,7.30
2019-03-04T20:43:25.790Z,7.30
2019-03-04T20:48:30.897Z,7.00
2019-03-04T20:53:35.754Z,7.30
2019-03-04T20:58:41.407Z,7.30
2019-03-04T21:03:46.732Z,7.40
2019-03-04T21:08:51.892Z,7.50
2019-03-04T21:13:56.790Z,7.50
2019-03-04T21:19:02.030Z,7.50
2019-03-04T21:24:06.920Z,7.50
2019-03-04T21:29:39.920Z,7.50
2019-03-04T21:35:15.429Z,7.60
2019-03-04T21:40:32.369Z,7.60
2019-03-04T21:46:20.736Z,7.50
2019-03-04T21:52:00.096Z,7.60
2019-03-04T21:57:11.055Z,7.40
2019-03-04T22:02:20.841Z,7.40
2019-03-04T22:07:26.612Z,7.40
2019-03-04T22:12:31.579Z,7.40
2019-03-04T22:17:37.441Z,7.40
2019-03-04T22:22:42.785Z,7.40
2019-03-04T22:27:47.960Z,7.40
2019-03-04T22:32:53.863Z,7.40
2019-03-04T22:37:59.360Z,7.30
2019-03-04T22:43:04.981Z,7.40
2019-03-04T22:48:09.925Z,7.30
2019-03-04T22:53:15.175Z,7.40
2019-03-04T22:58:28.492Z,7.30
2019-03-04T23:03:27.773Z,7.30
2019-03-04T23:08:33.204Z,7.30
2019-03-04T23:13:55.367Z,7.30
2019-03-04T23:19:00.663Z,7.30
2019-03-04T23:24:06.589Z,7.40
2019-03-04T23:29:11.757Z,7.30
2019-03-04T23:34:18.638Z,7.30
2019-03-04T23:39:23.890Z,7.40
2019-03-04T23:44:29.117Z,7.30
2019-03-04T23:49:34.430Z,7.40
2019-03-04T23:54:39.961Z,7.40
2019-03-04T23:59:45.184Z,7.30
